createdAt,value
2022-11-18T00:01:19.452Z,93.44
2022-11-18T00:03:46.585Z,91.74
2022-11-18T00:06:18.354Z,90.93
2022-11-18T00:08:45.467Z,93.19
2022-11-18T00:11:37.968Z,88.49
2022-11-18T00:14:19.067Z,87.27
2022-11-18T00:16:51.562Z,87.66
2022-11-18T00:19:20.536Z,88.33
2022-11-18T00:21:49.716Z,86.69
2022-11-18T00:24:16.425Z,86.57
2022-11-18T00:26:43.313Z,86.40
2022-11-18T00:29:12.507Z,84.62
2022-11-18T00:31:42.201Z,84.61
2022-11-18T00:34:12.011Z,82.43
2022-11-18T00:36:40.637Z,81.70
2022-11-18T00:39:07.446Z,82.39
2022-11-18T00:41:54.412Z,80.29
2022-11-18T00:44:21.146Z,79.12
2022-11-18T00:46:47.788Z,80.70
2022-11-18T00:49:14.837Z,80.56
2022-11-18T00:51:41.731Z,80.74
2022-11-18T00:54:08.479Z,80.70
2022-11-18T00:56:35.192Z,80.80
2022-11-18T00:59:02.109Z,79.77
2022-11-18T01:01:28.805Z,81.84
2022-11-18T01:03:55.938Z,83.13
2022-11-18T01:06:22.962Z,84.31
2022-11-18T01:08:49.610Z,84.38
2022-11-18T01:11:34.924Z,84.68
2022-11-18T01:14:01.584Z,84.33
2022-11-18T01:16:28.556Z,84.04
2022-11-18T01:18:55.527Z,85.53
2022-11-18T01:21:23.642Z,85.85
2022-11-18T01:23:50.338Z,86.61
2022-11-18T01:26:18.184Z,86.54
2022-11-18T01:28:45.547Z,86.46
2022-11-18T01:31:18.896Z,86.73
2022-11-18T01:33:46.368Z,87.02
2022-11-18T01:36:26.145Z,87.46
2022-11-18T01:38:55.219Z,87.47
2022-11-18T01:41:25.119Z,87.06
2022-11-18T01:43:51.832Z,87.05
2022-11-18T01:46:19.336Z,85.05
2022-11-18T01:48:47.189Z,84.97
2022-11-18T01:51:18.645Z,85.03
2022-11-18T01:53:52.013Z,85.71
2022-11-18T01:56:22.921Z,86.12
2022-11-18T01:58:54.750Z,85.80
2022-11-18T02:01:21.679Z,86.31
2022-11-18T02:03:49.743Z,86.74
2022-11-18T02:06:33.481Z,86.53
2022-11-18T02:09:00.116Z,86.88
2022-11-18T02:11:45.602Z,86.77
2022-11-18T02:14:14.801Z,86.12
2022-11-18T02:17:17.327Z,87.20
2022-11-18T02:20:37.034Z,87.15
2022-11-18T02:23:51.466Z,87.76
2022-11-18T02:26:48.633Z,88.97
2022-11-18T02:29:31.229Z,90.83
2022-11-18T02:32:01.059Z,90.58
2022-11-18T02:34:46.510Z,90.67
2022-11-18T02:37:34.031Z,90.61
2022-11-18T02:40:28.836Z,91.09
2022-11-18T02:43:05.181Z,91.63
2022-11-18T02:45:32.803Z,90.74
2022-11-18T02:48:05.910Z,89.64
2022-11-18T02:50:33.147Z,89.31
2022-11-18T02:53:01.826Z,89.60
2022-11-18T02:55:34.792Z,90.65
2022-11-18T02:58:03.002Z,91.11
2022-11-18T03:00:33.604Z,89.63
2022-11-18T03:03:00.576Z,89.20
2022-11-18T03:05:41.133Z,89.44
2022-11-18T03:08:13.112Z,89.20
2022-11-18T03:11:05.756Z,89.69
2022-11-18T03:13:47.559Z,89.03
2022-11-18T03:16:19.880Z,89.20
2022-11-18T03:18:57.277Z,89.36
2022-11-18T03:21:37.210Z,89.67
2022-11-18T03:24:11.854Z,90.01
2022-11-18T03:26:51.486Z,89.68
2022-11-18T03:29:23.290Z,90.12
2022-11-18T03:31:54.229Z,90.03
2022-11-18T03:34:47.577Z,91.06
2022-11-18T03:37:16.284Z,90.72
2022-11-18T03:39:47.720Z,91.91
2022-11-18T03:42:37.656Z,93.17
2022-11-18T03:45:10.750Z,93.18
2022-11-18T03:47:43.793Z,92.49
2022-11-18T03:50:13.083Z,91.90
2022-11-18T03:52:44.439Z,90.65
2022-11-18T03:55:24.591Z,90.75
2022-11-18T03:58:01.831Z,90.75
2022-11-18T04:00:34.590Z,90.15
2022-11-18T04:03:02.525Z,91.92
2022-11-18T04:05:38.398Z,93.02
2022-11-18T04:08:08.229Z,91.69
2022-11-18T04:10:42.714Z,91.36
2022-11-18T04:13:18.184Z,92.22
2022-11-18T04:15:45.050Z,91.95
2022-11-18T04:18:11.856Z,92.21
2022-11-18T04:20:38.820Z,90.90
2022-11-18T04:23:06.568Z,89.78
2022-11-18T04:25:39.203Z,90.75
2022-11-18T04:28:05.953Z,89.99
2022-11-18T04:30:37.117Z,90.55
2022-11-18T04:33:03.743Z,90.24
2022-11-18T04:35:30.227Z,90.79
2022-11-18T04:37:58.570Z,91.50
2022-11-18T04:40:25.103Z,91.42
2022-11-18T04:42:54.664Z,92.08
2022-11-18T04:45:22.745Z,92.56
2022-11-18T04:47:50.688Z,91.77
2022-11-18T04:50:18.689Z,91.14
2022-11-18T04:52:45.225Z,90.57
2022-11-18T04:55:13.596Z,90.77
2022-11-18T04:57:40.063Z,90.44
2022-11-18T05:00:07.321Z,91.28
2022-11-18T05:02:33.975Z,91.22
2022-11-18T05:05:02.385Z,91.42
2022-11-18T05:07:29.028Z,90.91
2022-11-18T05:09:55.586Z,91.23
2022-11-18T05:12:44.343Z,90.88
2022-11-18T05:15:11.240Z,89.80
2022-11-18T05:17:38.035Z,89.70
2022-11-18T05:20:04.889Z,90.54
2022-11-18T05:22:31.416Z,90.02
2022-11-18T05:24:57.956Z,89.95
2022-11-18T05:27:26.044Z,89.79
2022-11-18T05:29:52.801Z,89.51
2022-11-18T05:32:19.282Z,89.85
2022-11-18T05:34:45.796Z,89.53
2022-11-18T05:37:12.506Z,90.75
2022-11-18T05:39:38.968Z,89.52
2022-11-18T05:42:24.795Z,89.01
2022-11-18T05:44:57.530Z,88.69
2022-11-18T05:47:25.217Z,88.23
2022-11-18T05:49:51.717Z,88.36
2022-11-18T05:52:18.251Z,87.55
2022-11-18T05:54:49.683Z,87.00
2022-11-18T05:57:16.163Z,87.17
2022-11-18T05:59:43.078Z,87.75
2022-11-18T06:02:16.962Z,86.79
2022-11-18T06:04:47.056Z,86.56
2022-11-18T06:07:32.159Z,86.41
2022-11-18T06:10:04.740Z,86.88
2022-11-18T06:12:38.622Z,85.95
2022-11-18T06:15:26.668Z,84.00
2022-11-18T06:18:00.053Z,84.63
2022-11-18T06:20:27.372Z,84.23
2022-11-18T06:22:55.992Z,83.05
2022-11-18T06:25:23.226Z,80.59
2022-11-18T06:27:50.409Z,79.95
2022-11-18T06:30:17.376Z,80.68
2022-11-18T06:32:43.888Z,79.61
2022-11-18T06:35:10.516Z,77.70
2022-11-18T06:37:37.039Z,78.59
2022-11-18T06:40:03.836Z,79.42
2022-11-18T06:42:49.103Z,76.83
2022-11-18T06:45:15.692Z,76.24
2022-11-18T06:47:42.550Z,75.94
2022-11-18T06:50:09.256Z,76.24
2022-11-18T06:52:35.783Z,76.56
2022-11-18T06:55:02.337Z,75.15
2022-11-18T06:57:28.942Z,75.77
2022-11-18T07:00:00.603Z,75.05
2022-11-18T07:02:28.442Z,77.46
2022-11-18T07:04:54.888Z,76.59
2022-11-18T07:07:21.597Z,75.61
2022-11-18T07:09:48.175Z,75.24
2022-11-18T07:12:14.610Z,75.06
2022-11-18T07:14:41.137Z,75.44
2022-11-18T07:17:07.717Z,75.19
2022-11-18T07:19:35.952Z,72.10
2022-11-18T07:22:02.645Z,73.00
2022-11-18T07:24:29.171Z,75.15
2022-11-18T07:26:56.013Z,74.51
2022-11-18T07:29:22.620Z,72.58
2022-11-18T07:31:49.100Z,72.68
2022-11-18T07:34:16.055Z,73.45
2022-11-18T07:36:45.204Z,73.56
2022-11-18T07:39:11.746Z,73.24
2022-11-18T07:41:41.500Z,72.74
2022-11-18T07:44:11.264Z,72.31
2022-11-18T07:46:38.012Z,72.92
2022-11-18T07:49:06.662Z,72.83
2022-11-18T07:51:35.095Z,70.86
2022-11-18T07:54:05.589Z,69.97
2022-11-18T07:56:32.155Z,70.50
2022-11-18T07:58:58.632Z,73.71
2022-11-18T08:01:29.109Z,71.42
2022-11-18T08:03:55.752Z,70.70
2022-11-18T08:06:22.261Z,67.89
2022-11-18T08:08:49.182Z,65.44
2022-11-18T08:11:22.315Z,64.61
2022-11-18T08:13:49.903Z,66.84
2022-11-18T08:16:22.229Z,67.67
2022-11-18T08:18:48.804Z,68.33
2022-11-18T08:21:18.578Z,70.06
2022-11-18T08:23:50.368Z,71.76
2022-11-18T08:26:17.089Z,73.65
2022-11-18T08:28:44.405Z,74.61
2022-11-18T08:31:22.524Z,76.61
2022-11-18T08:33:49.022Z,76.98
2022-11-18T08:36:17.972Z,78.65
2022-11-18T08:38:45.016Z,76.66
2022-11-18T08:41:17.481Z,77.87
2022-11-18T08:43:43.989Z,79.06
2022-11-18T08:46:10.564Z,78.28
2022-11-18T08:48:37.213Z,78.63
2022-11-18T08:51:04.517Z,79.24
2022-11-18T08:53:31.090Z,78.14
2022-11-18T08:55:58.863Z,77.39
2022-11-18T08:58:26.368Z,76.36
2022-11-18T09:00:55.590Z,76.96
2022-11-18T09:03:22.617Z,75.60
2022-11-18T09:05:49.589Z,74.25
2022-11-18T09:08:16.155Z,74.54
2022-11-18T09:10:42.990Z,75.25
2022-11-18T09:13:33.745Z,75.28
2022-11-18T09:15:59.187Z,73.93
2022-11-18T09:18:25.680Z,71.83
2022-11-18T09:21:01.117Z,71.11
2022-11-18T09:23:27.960Z,68.30
2022-11-18T09:26:01.917Z,67.79
2022-11-18T09:28:28.632Z,69.04
2022-11-18T09:30:55.309Z,66.75
2022-11-18T09:33:22.570Z,68.34
2022-11-18T09:35:49.124Z,65.87
2022-11-18T09:38:16.014Z,67.37
2022-11-18T09:41:09.925Z,67.47
2022-11-18T09:43:42.374Z,65.99
2022-11-18T09:46:46.469Z,66.53
2022-11-18T09:49:37.477Z,66.81
2022-11-18T09:52:37.409Z,66.65
2022-11-18T09:55:11.918Z,64.20
2022-11-18T09:57:40.652Z,58.92
2022-11-18T10:00:24.825Z,60.34
2022-11-18T10:03:12.082Z,60.59
2022-11-18T10:05:49.880Z,60.67
2022-11-18T10:08:25.843Z,60.72
2022-11-18T10:10:52.747Z,60.97
2022-11-18T10:14:05.759Z,61.57
2022-11-18T10:16:47.105Z,61.92
2022-11-18T10:19:27.556Z,65.03
2022-11-18T10:21:56.869Z,67.37
2022-11-18T10:24:27.074Z,68.14
2022-11-18T10:26:58.506Z,73.18
2022-11-18T10:29:25.490Z,74.79
2022-11-18T10:32:05.975Z,74.81
2022-11-18T10:34:33.849Z,74.54
2022-11-18T10:37:07.060Z,74.96
2022-11-18T10:39:33.990Z,76.81
2022-11-18T10:42:04.152Z,76.51
2022-11-18T10:44:39.631Z,72.76
2022-11-18T10:47:24.471Z,71.59
2022-11-18T10:49:58.887Z,72.52
2022-11-18T10:52:26.188Z,70.87
2022-11-18T10:55:19.597Z,67.13
2022-11-18T10:57:49.002Z,65.78
2022-11-18T11:00:38.817Z,66.41
2022-11-18T11:03:22.350Z,66.00
2022-11-18T11:05:49.239Z,67.34
2022-11-18T11:08:36.357Z,67.64
2022-11-18T11:11:04.729Z,67.08
2022-11-18T11:13:32.244Z,68.17
2022-11-18T11:16:01.664Z,67.34
2022-11-18T11:18:42.918Z,66.76
2022-11-18T11:21:20.375Z,68.58
2022-11-18T11:23:46.894Z,68.63
2022-11-18T11:29:15.040Z,67.58
2022-11-18T11:32:05.554Z,67.71
2022-11-18T11:34:38.905Z,65.70
2022-11-18T11:37:37.740Z,67.07
2022-11-18T11:40:42.685Z,67.74
2022-11-18T11:43:43.588Z,69.93
2022-11-18T11:46:36.320Z,69.76
2022-11-18T11:49:21.478Z,72.06
2022-11-18T11:52:06.055Z,71.03
2022-11-18T11:55:04.776Z,69.56
2022-11-18T11:58:08.802Z,69.36
2022-11-18T12:00:40.554Z,68.74
2022-11-18T12:03:25.434Z,68.19
2022-11-18T12:05:51.914Z,68.51
2022-11-18T12:08:24.507Z,67.35
2022-11-18T12:11:01.258Z,69.44
2022-11-18T12:13:33.067Z,68.96
2022-11-18T12:16:17.799Z,70.85
2022-11-18T12:18:56.492Z,69.31
2022-11-18T12:21:45.667Z,69.54
2022-11-18T12:24:18.124Z,70.32
2022-11-18T12:26:46.209Z,70.21
2022-11-18T12:29:18.936Z,70.58
2022-11-18T12:31:53.929Z,71.58
2022-11-18T12:34:35.099Z,69.43
2022-11-18T12:37:26.424Z,69.39
2022-11-18T12:39:55.881Z,69.40
2022-11-18T12:43:03.301Z,68.39
2022-11-18T12:45:42.888Z,68.32
2022-11-18T12:48:42.011Z,69.81
2022-11-18T12:51:38.998Z,67.91
2022-11-18T12:54:41.224Z,67.58
2022-11-18T12:57:26.923Z,68.78
2022-11-18T12:59:54.410Z,69.48
2022-11-18T13:02:25.936Z,68.76
2022-11-18T13:05:09.314Z,69.13
2022-11-18T13:08:15.889Z,70.60
2022-11-18T13:10:55.916Z,70.00
2022-11-18T13:13:26.414Z,68.98
2022-11-18T13:16:12.402Z,68.26
2022-11-18T13:18:53.210Z,66.95
2022-11-18T13:21:46.336Z,67.28
2022-11-18T13:24:14.121Z,67.45
2022-11-18T13:26:42.807Z,67.79
2022-11-18T13:29:30.591Z,69.09
2022-11-18T13:32:17.251Z,66.38
2022-11-18T13:34:55.641Z,68.18
2022-11-18T13:37:30.314Z,68.25
2022-11-18T13:39:57.252Z,66.99
2022-11-18T13:42:24.958Z,67.59
2022-11-18T13:44:59.466Z,67.84
2022-11-18T13:47:27.751Z,68.16
2022-11-18T13:50:05.190Z,67.59
2022-11-18T13:52:49.153Z,67.52
2022-11-18T13:55:21.218Z,66.75
2022-11-18T13:57:54.197Z,68.31
2022-11-18T14:00:26.621Z,67.08
2022-11-18T14:03:02.905Z,68.14
2022-11-18T14:05:37.368Z,68.89
2022-11-18T14:08:06.570Z,68.83
2022-11-18T14:10:44.277Z,69.70
2022-11-18T14:13:20.057Z,68.90
2022-11-18T14:15:46.614Z,68.83
2022-11-18T14:18:36.403Z,69.66
2022-11-18T14:21:05.314Z,69.60
2022-11-18T14:23:50.486Z,70.09
2022-11-18T14:26:35.341Z,70.47
2022-11-18T14:29:29.566Z,70.70
2022-11-18T14:32:10.969Z,68.80
2022-11-18T14:34:37.540Z,69.30
2022-11-18T14:37:10.188Z,68.48
2022-11-18T14:39:38.007Z,66.50
2022-11-18T14:42:06.741Z,64.95
2022-11-18T14:44:33.275Z,64.86
2022-11-18T14:47:05.117Z,64.04
2022-11-18T14:49:32.875Z,64.03
2022-11-18T14:52:02.786Z,63.49
2022-11-18T14:54:31.546Z,63.88
2022-11-18T14:57:00.698Z,63.96
2022-11-18T14:59:27.441Z,63.27
2022-11-18T15:01:54.204Z,65.51
2022-11-18T15:04:22.423Z,66.29
2022-11-18T15:06:50.143Z,63.84
2022-11-18T15:09:20.832Z,65.04
2022-11-18T15:11:47.772Z,65.05
2022-11-18T15:14:14.325Z,64.50
2022-11-18T15:16:42.471Z,63.73
2022-11-18T15:19:15.730Z,64.30
2022-11-18T15:21:43.326Z,64.00
2022-11-18T15:24:15.830Z,64.97
2022-11-18T15:26:50.504Z,66.06
2022-11-18T15:29:29.250Z,66.78
2022-11-18T15:31:58.930Z,66.85
2022-11-18T15:34:30.328Z,66.96
2022-11-18T15:36:58.374Z,66.98
2022-11-18T15:39:26.697Z,67.06
2022-11-18T15:44:37.026Z,67.44
2022-11-18T15:47:04.632Z,66.89
2022-11-18T15:49:31.723Z,67.95
2022-11-18T15:51:58.310Z,68.48
2022-11-18T15:54:27.154Z,68.97
2022-11-18T15:56:56.895Z,69.41
2022-11-18T15:59:25.881Z,69.58
2022-11-18T16:01:57.501Z,71.57
2022-11-18T16:04:27.405Z,70.50
2022-11-18T16:06:54.309Z,69.84
2022-11-18T16:09:21.305Z,70.68
2022-11-18T16:12:07.779Z,70.15
2022-11-18T16:14:38.214Z,70.28
2022-11-18T16:17:04.784Z,70.42
2022-11-18T16:19:33.621Z,69.67
2022-11-18T16:22:00.245Z,69.71
2022-11-18T16:24:28.997Z,70.33
2022-11-18T16:26:56.184Z,70.31
2022-11-18T16:29:24.071Z,69.99
2022-11-18T16:31:59.468Z,69.24
2022-11-18T16:34:31.162Z,69.84
2022-11-18T16:37:02.194Z,70.03
2022-11-18T16:39:29.018Z,71.36
2022-11-18T16:42:24.729Z,71.23
2022-11-18T16:44:51.341Z,70.99
2022-11-18T16:47:17.949Z,71.65
2022-11-18T16:49:47.363Z,71.39
2022-11-18T16:52:14.321Z,71.23
2022-11-18T16:54:46.355Z,71.63
2022-11-18T16:57:18.622Z,71.96
2022-11-18T16:59:45.544Z,71.76
2022-11-18T17:02:32.647Z,72.69
2022-11-18T17:05:00.423Z,72.88
2022-11-18T17:07:36.870Z,72.86
2022-11-18T17:10:05.976Z,74.15
2022-11-18T17:12:38.281Z,74.46
2022-11-18T17:15:05.157Z,75.11
2022-11-18T17:17:33.290Z,74.47
2022-11-18T17:20:02.945Z,75.23
2022-11-18T17:22:29.573Z,75.85
2022-11-18T17:25:04.902Z,70.56
2022-11-18T17:27:39.412Z,68.90
2022-11-18T17:30:07.616Z,69.80
2022-11-18T17:32:34.118Z,69.61
2022-11-18T17:35:00.603Z,69.25
2022-11-18T17:37:29.206Z,69.46
2022-11-18T17:39:55.771Z,69.75
2022-11-18T17:42:25.664Z,69.53
2022-11-18T17:44:52.342Z,70.40
2022-11-18T17:47:18.777Z,71.28
2022-11-18T17:49:45.615Z,72.00
2022-11-18T17:52:13.208Z,72.66
2022-11-18T17:54:39.858Z,71.82
2022-11-18T17:57:06.327Z,71.94
2022-11-18T17:59:34.274Z,72.18
2022-11-18T18:02:01.229Z,72.95
2022-11-18T18:04:27.896Z,73.66
2022-11-18T18:06:55.438Z,74.32
2022-11-18T18:09:28.874Z,73.94
2022-11-18T18:11:59.577Z,73.24
2022-11-18T18:14:36.597Z,72.68
2022-11-18T18:17:06.424Z,71.42
2022-11-18T18:19:36.163Z,71.26
2022-11-18T18:22:04.669Z,72.09
2022-11-18T18:24:33.125Z,72.19
2022-11-18T18:27:01.301Z,72.05
2022-11-18T18:29:32.240Z,73.28
2022-11-18T18:31:59.154Z,73.48
2022-11-18T18:34:33.589Z,74.72
2022-11-18T18:37:02.440Z,74.11
2022-11-18T18:39:28.976Z,72.59
2022-11-18T18:41:55.723Z,73.20
2022-11-18T18:44:22.368Z,74.03
2022-11-18T18:46:48.966Z,74.25
2022-11-18T18:49:20.243Z,74.41
2022-11-18T18:51:50.449Z,75.25
2022-11-18T18:54:18.987Z,75.10
2022-11-18T18:56:51.091Z,75.05
2022-11-18T18:59:17.603Z,75.48
2022-11-18T19:01:44.173Z,75.70
2022-11-18T19:04:12.378Z,75.26
2022-11-18T19:09:29.314Z,75.21
2022-11-18T19:12:14.499Z,75.15
2022-11-18T19:14:41.465Z,74.93
2022-11-18T19:17:12.340Z,75.24
2022-11-18T19:20:01.799Z,75.19
2022-11-18T19:22:32.406Z,76.18
2022-11-18T19:24:59.808Z,75.50
2022-11-18T19:27:28.287Z,75.52
2022-11-18T19:29:54.886Z,75.92
2022-11-18T19:32:23.216Z,76.35
2022-11-18T19:34:49.719Z,76.29
2022-11-18T19:37:16.385Z,76.56
2022-11-18T19:39:42.946Z,76.88
2022-11-18T19:42:10.914Z,76.69
2022-11-18T19:44:38.247Z,76.12
2022-11-18T19:47:05.068Z,76.24
2022-11-18T19:49:31.675Z,77.18
2022-11-18T19:51:58.131Z,77.36
2022-11-18T19:54:24.651Z,77.42
2022-11-18T19:56:51.418Z,78.06
2022-11-18T19:59:18.323Z,78.14
2022-11-18T20:01:45.023Z,77.18
2022-11-18T20:04:11.689Z,76.86
2022-11-18T20:06:38.282Z,75.86
2022-11-18T20:09:09.460Z,76.81
2022-11-18T20:11:36.467Z,76.83
2022-11-18T20:14:03.032Z,76.30
2022-11-18T20:16:29.679Z,75.41
2022-11-18T20:19:08.002Z,75.87
2022-11-18T20:21:40.081Z,75.82
2022-11-18T20:24:08.049Z,76.41
2022-11-18T20:26:38.081Z,75.83
2022-11-18T20:29:07.593Z,76.15
2022-11-18T20:31:34.781Z,76.78
2022-11-18T20:34:03.722Z,80.09
2022-11-18T20:36:39.011Z,81.21
2022-11-18T20:39:11.087Z,81.93
2022-11-18T20:41:37.606Z,84.06
2022-11-18T20:44:07.221Z,85.31
2022-11-18T20:46:34.726Z,85.74
2022-11-18T20:49:01.841Z,87.13
2022-11-18T20:51:30.997Z,87.16
2022-11-18T20:53:58.095Z,87.78
2022-11-18T20:56:26.345Z,88.68
2022-11-18T20:58:56.740Z,88.28
2022-11-18T21:01:29.527Z,89.34
2022-11-18T21:04:02.306Z,89.17
2022-11-18T21:06:31.588Z,89.03
2022-11-18T21:09:03.047Z,89.63
2022-11-18T21:11:32.341Z,88.99
2022-11-18T21:14:22.877Z,90.04
2022-11-18T21:16:55.631Z,89.75
2022-11-18T21:19:26.209Z,89.83
2022-11-18T21:21:53.266Z,89.55
2022-11-18T21:24:23.322Z,90.89
2022-11-18T21:26:51.844Z,91.50
2022-11-18T21:29:18.720Z,92.99
2022-11-18T21:31:47.064Z,93.34
2022-11-18T21:34:13.998Z,91.86
2022-11-18T21:36:45.633Z,92.24
2022-11-18T21:39:15.557Z,92.09
2022-11-18T21:41:42.142Z,91.82
2022-11-18T21:44:13.178Z,91.93
2022-11-18T21:46:41.227Z,91.47
2022-11-18T21:49:08.389Z,91.52
2022-11-18T21:51:35.757Z,91.04
2022-11-18T21:54:02.548Z,90.79
2022-11-18T21:56:33.076Z,91.31
2022-11-18T21:59:00.877Z,91.34
2022-11-18T22:01:32.462Z,91.09
2022-11-18T22:04:04.470Z,91.12
2022-11-18T22:06:33.671Z,91.05
2022-11-18T22:09:01.625Z,91.03
2022-11-18T22:11:28.492Z,91.08
2022-11-18T22:13:56.561Z,92.22
2022-11-18T22:16:24.644Z,91.66
2022-11-18T22:18:58.087Z,92.04
2022-11-18T22:21:29.054Z,91.20
2022-11-18T22:24:00.910Z,90.74
2022-11-18T22:26:28.422Z,89.70
2022-11-18T22:28:56.764Z,90.95
2022-11-18T22:31:24.853Z,90.39
2022-11-18T22:33:52.116Z,90.20
2022-11-18T22:36:20.457Z,90.33
2022-11-18T22:38:47.335Z,90.78
2022-11-18T22:41:36.916Z,89.96
2022-11-18T22:44:07.803Z,89.24
2022-11-18T22:46:35.878Z,88.90
2022-11-18T22:49:04.164Z,89.09
2022-11-18T22:51:33.486Z,88.87
2022-11-18T22:54:30.569Z,88.07
2022-11-18T22:56:46.509Z,88.46
2022-11-18T22:59:15.184Z,89.01
2022-11-18T23:01:41.774Z,89.47
2022-11-18T23:04:08.930Z,90.09
2022-11-18T23:06:35.484Z,90.93
2022-11-18T23:09:02.331Z,91.04
2022-11-18T23:11:49.277Z,91.26
2022-11-18T23:14:16.323Z,92.33
2022-11-18T23:16:46.860Z,93.73
2022-11-18T23:19:15.405Z,93.89
2022-11-18T23:21:42.964Z,95.05
2022-11-18T23:24:14.049Z,94.36
2022-11-18T23:26:44.306Z,93.92
2022-11-18T23:29:12.048Z,93.32
2022-11-18T23:31:44.185Z,92.56
2022-11-18T23:34:12.263Z,92.23
2022-11-18T23:36:38.911Z,93.22
2022-11-18T23:39:08.187Z,91.16
2022-11-18T23:41:34.981Z,89.56
2022-11-18T23:44:01.860Z,90.11
2022-11-18T23:46:28.545Z,90.50
2022-11-18T23:48:55.202Z,90.21
2022-11-18T23:51:22.724Z,91.66
2022-11-18T23:53:52.887Z,90.97
2022-11-18T23:56:20.582Z,90.15
2022-11-18T23:58:49.770Z,90.40
